Airfield :
LOGIN :

Register | Disclaimer

   EN    FR    IT 

 










Legend :    VFR   Marginal VFR   IFR   Intensive IFR   Very Intensive IFR
Visi :
Ceiling :
>= 8 km
>= 3000ft
5 to 8 km
1000 to 3000 ft
1500m to 5 km
500 to 1000 ft
800 to 1500m
200 to 500 ft
< 800m
< 200 ft
Symbols :   Thunderstorms  Fog  Heavy snow  Heavy precipitations  Wind > 20 kt
SIGMETs :     Misc.  Thunderstorms  Icing  Turbulence  Mountain Waves  Volcanic Ashes







- Airport Elevation : 125 ft
- IATA code : MGL


EDLN - Mönchengladbach

CURRENT METAR :
  • 190150Z AUTO 20002KT 9999 // FEW056/// OVC110/// 17/15 Q1013

EXPIRED METARs :
  • 190120Z AUTO VRB02KT 9999 // SCT079/// OVC110/// 17/15 Q1013
  • 190050Z AUTO 20001KT 9999 // BKN110/// BKN140/// 17/14 Q1013
  • 190020Z AUTO 00000KT 9999 // FEW078/// BKN150/// BKN180/// 16/14 Q1013
  • 182350Z AUTO VRB01KT 9999 // BKN140/// BKN180/// 17/14 Q1013
  • 182320Z AUTO 00000KT 9999 // FEW054/// BKN140/// 17/14 Q1013

TAF TAF EDLN
Valid from the 18 at 18:00 until the 19 at 03:00 UTC


181700Z 1818/1903 29006KT CAVOK
BECMG 1819/1821 20003KT
No reported NOTAMs for that airfield.



MET'MAP, your aeronautical weather chart ! - Copyright ORBIFLY December 2007 - Disclaimer

ORBIFLY MET'MAP TEAM :

Programming & Development : Alexandra Zaïnal
Concept & Development : Baudouin d'Aumeries
Co-Development & Prog : Marc-Olivier Méhu
Technical & hardware support : Manuel Goepfert

Contact : metmap@orbifly.com




SOURCES & CREDITS :

   NOAA